createdAt,value
2022-11-28T00:00:55.704Z,0.34
2022-11-28T00:06:09.665Z,0.42
2022-11-28T00:11:12.501Z,0.36
2022-11-28T00:16:15.306Z,0.36
2022-11-28T00:21:18.588Z,0.23
2022-11-28T00:26:21.315Z,0.17
2022-11-28T00:31:24.472Z,0.17
2022-11-28T00:36:27.192Z,0.29
2022-11-28T00:41:30.299Z,0.26
2022-11-28T00:46:33.011Z,0.26
2022-11-28T00:51:35.768Z,0.40
2022-11-28T00:56:38.407Z,0.42
2022-11-28T01:01:41.301Z,0.34
2022-11-28T01:06:44.116Z,0.16
2022-11-28T01:11:46.880Z,0.13
2022-11-28T01:16:49.614Z,0.04
2022-11-28T01:21:52.431Z,-0.03
2022-11-28T01:26:55.183Z,-0.05
2022-11-28T01:31:58.671Z,-0.06
2022-11-28T01:37:01.324Z,-0.14
2022-11-28T01:42:04.049Z,-0.02
2022-11-28T01:47:07.218Z,0.04
2022-11-28T01:52:09.935Z,0.02
2022-11-28T01:57:12.559Z,0.01
2022-11-28T02:02:15.246Z,-0.12
2022-11-28T02:07:18.034Z,-0.12
2022-11-28T02:12:20.777Z,0.20
2022-11-28T02:17:23.418Z,0.37
2022-11-28T02:22:26.146Z,0.42
2022-11-28T02:27:28.881Z,0.11
2022-11-28T02:32:34.112Z,0.31
2022-11-28T02:37:36.722Z,0.35
2022-11-28T02:42:39.728Z,0.25
2022-11-28T02:47:42.441Z,0.30
2022-11-28T02:52:45.025Z,0.21
2022-11-28T02:57:47.813Z,0.10
2022-11-28T03:02:50.433Z,0.02
2022-11-28T03:07:53.154Z,-0.05
2022-11-28T03:12:55.841Z,-0.04
2022-11-28T03:17:58.524Z,0.04
2022-11-28T03:23:01.133Z,0.03
2022-11-28T03:28:03.690Z,-0.03
2022-11-28T03:33:06.277Z,-0.06
2022-11-28T03:38:08.906Z,-0.09
2022-11-28T03:43:15.513Z,-0.06
2022-11-28T03:48:18.188Z,0.00
2022-11-28T03:53:20.786Z,-0.18
2022-11-28T03:58:23.426Z,-0.11
2022-11-28T04:03:26.145Z,-0.08
2022-11-28T04:08:28.882Z,-0.11
2022-11-28T04:13:31.463Z,-0.04
2022-11-28T04:18:34.121Z,0.16
2022-11-28T04:23:36.725Z,0.19
2022-11-28T04:28:39.774Z,0.15
2022-11-28T04:33:42.812Z,0.29
2022-11-28T04:38:49.393Z,0.43
2022-11-28T04:43:52.037Z,0.33
2022-11-28T04:48:55.242Z,0.41
2022-11-28T04:53:57.856Z,0.32
2022-11-28T04:59:00.463Z,0.41
2022-11-28T05:04:03.224Z,0.47
2022-11-28T05:09:05.846Z,0.38
2022-11-28T05:14:08.473Z,0.14
2022-11-28T05:19:21.088Z,0.21
2022-11-28T05:24:27.956Z,0.42
2022-11-28T05:29:33.401Z,0.38
2022-11-28T05:34:36.085Z,0.50
2022-11-28T05:39:38.700Z,0.44
2022-11-28T05:44:41.389Z,0.49
2022-11-28T05:49:45.674Z,0.48
2022-11-28T05:54:49.400Z,0.52
2022-11-28T05:59:52.085Z,0.57
2022-11-28T06:04:55.021Z,0.58
2022-11-28T06:09:57.720Z,0.61
2022-11-28T06:15:00.327Z,0.61
2022-11-28T06:20:02.968Z,0.59
2022-11-28T06:25:05.601Z,0.70
2022-11-28T06:30:08.668Z,0.71
2022-11-28T06:35:11.673Z,0.81
2022-11-28T06:40:14.444Z,0.91
2022-11-28T06:45:17.087Z,1.05
2022-11-28T06:50:19.693Z,1.13
2022-11-28T06:55:22.389Z,1.16
2022-11-28T07:00:24.997Z,1.42
2022-11-28T07:05:27.820Z,1.45
2022-11-28T07:10:30.451Z,1.63
2022-11-28T07:15:33.151Z,1.61
2022-11-28T07:20:38.170Z,1.94
2022-11-28T07:25:40.772Z,2.00
2022-11-28T07:30:43.455Z,2.15
2022-11-28T07:35:46.070Z,2.26
2022-11-28T07:40:48.673Z,2.14
2022-11-28T07:46:01.099Z,2.36
2022-11-28T07:51:07.139Z,2.45
2022-11-28T07:56:09.757Z,2.59
2022-11-28T08:01:12.376Z,2.74
2022-11-28T08:06:15.007Z,2.82
2022-11-28T08:11:17.617Z,2.83
2022-11-28T08:16:21.513Z,2.92
2022-11-28T08:21:24.340Z,3.06
2022-11-28T08:26:30.432Z,3.40
2022-11-28T08:31:33.556Z,3.46
2022-11-28T08:36:36.540Z,3.35
2022-11-28T08:41:39.340Z,3.50
2022-11-28T08:46:42.249Z,3.48
2022-11-28T08:51:44.857Z,3.48
2022-11-28T08:56:47.473Z,3.46
2022-11-28T09:01:50.099Z,3.73
2022-11-28T09:06:53.079Z,3.89
2022-11-28T09:11:55.679Z,3.87
2022-11-28T09:16:58.516Z,3.62
2022-11-28T09:22:01.209Z,3.65
2022-11-28T09:27:03.902Z,3.92
2022-11-28T09:32:06.611Z,3.92
2022-11-28T09:37:09.824Z,4.30
2022-11-28T09:42:12.625Z,4.59
2022-11-28T09:47:15.235Z,4.65
2022-11-28T09:52:17.944Z,4.50
2022-11-28T09:57:20.571Z,4.98
2022-11-28T10:02:23.430Z,5.20
2022-11-28T10:07:26.169Z,5.15
2022-11-28T10:12:28.851Z,4.94
2022-11-28T10:17:31.519Z,5.14
2022-11-28T10:22:34.158Z,5.39
2022-11-28T10:27:37.213Z,5.47
2022-11-28T10:32:39.945Z,5.55
2022-11-28T10:37:44.166Z,5.86
2022-11-28T10:42:46.924Z,5.90
2022-11-28T10:47:49.989Z,6.32
2022-11-28T10:52:53.176Z,6.47
2022-11-28T10:57:57.781Z,6.68
2022-11-28T11:03:02.373Z,6.65
2022-11-28T11:08:07.726Z,7.09
2022-11-28T11:13:10.867Z,7.23
2022-11-28T11:18:14.058Z,6.85
2022-11-28T11:23:17.611Z,6.81
2022-11-28T11:28:20.725Z,7.01
2022-11-28T11:33:23.854Z,7.33
2022-11-28T11:38:27.017Z,7.51
2022-11-28T11:43:30.099Z,7.47
2022-11-28T11:48:33.361Z,7.31
2022-11-28T11:53:36.596Z,7.40
2022-11-28T11:58:39.773Z,7.21
2022-11-28T12:03:43.022Z,7.39
2022-11-28T12:08:46.592Z,7.36
2022-11-28T12:13:49.741Z,7.36
2022-11-28T12:18:54.061Z,7.37
2022-11-28T12:23:57.170Z,7.41
2022-11-28T12:29:00.274Z,7.27
2022-11-28T12:34:03.398Z,7.07
2022-11-28T12:39:06.608Z,6.96
2022-11-28T12:44:10.397Z,6.84
2022-11-28T12:49:14.252Z,6.89
2022-11-28T12:54:17.342Z,6.98
2022-11-28T12:59:21.363Z,6.81
2022-11-28T13:04:24.989Z,6.58
2022-11-28T13:09:28.488Z,6.83
2022-11-28T13:14:31.560Z,6.61
2022-11-28T13:19:34.613Z,6.23
2022-11-28T13:24:37.730Z,6.11
2022-11-28T13:29:40.872Z,6.08
2022-11-28T13:34:44.206Z,6.06
2022-11-28T13:39:48.076Z,6.08
2022-11-28T13:44:51.450Z,6.08
2022-11-28T13:49:54.521Z,5.86
2022-11-28T13:54:57.952Z,5.79
2022-11-28T14:00:01.401Z,5.86
2022-11-28T14:05:04.476Z,5.81
2022-11-28T14:10:07.612Z,5.82
2022-11-28T14:15:11.151Z,5.78
2022-11-28T14:20:20.480Z,5.69
2022-11-28T14:25:23.765Z,5.68
2022-11-28T14:30:26.902Z,5.69
2022-11-28T14:35:30.032Z,5.65
2022-11-28T14:40:43.928Z,5.59
2022-11-28T14:45:47.027Z,5.64
2022-11-28T14:50:51.669Z,5.64
2022-11-28T14:55:57.789Z,5.67
2022-11-28T15:01:02.357Z,5.70
2022-11-28T15:06:05.530Z,5.63
2022-11-28T15:11:08.775Z,5.61
2022-11-28T15:16:12.542Z,5.61
2022-11-28T15:21:16.201Z,5.43
2022-11-28T15:26:19.472Z,5.47
2022-11-28T15:31:22.780Z,5.58
2022-11-28T15:36:26.054Z,5.58
2022-11-28T15:41:29.213Z,5.53
2022-11-28T15:46:32.561Z,5.61
2022-11-28T15:51:36.155Z,5.56
2022-11-28T15:56:39.442Z,5.54
2022-11-28T16:01:42.878Z,5.66
2022-11-28T16:06:46.056Z,5.68
2022-11-28T16:11:49.241Z,5.66
2022-11-28T16:16:52.375Z,5.56
2022-11-28T16:21:55.531Z,5.53
2022-11-28T16:26:59.848Z,5.63
2022-11-28T16:32:05.275Z,5.82
2022-11-28T16:37:08.464Z,5.51
2022-11-28T16:42:11.600Z,5.53
2022-11-28T16:47:14.761Z,5.22
2022-11-28T16:52:17.927Z,5.19
2022-11-28T16:57:21.075Z,5.03
2022-11-28T17:02:24.559Z,4.92
2022-11-28T17:07:27.821Z,4.77
2022-11-28T17:12:30.999Z,4.84
2022-11-28T17:17:34.194Z,4.83
2022-11-28T17:22:40.719Z,4.72
2022-11-28T17:27:44.576Z,4.71
2022-11-28T17:32:49.004Z,4.75
2022-11-28T17:37:52.236Z,4.83
2022-11-28T17:42:55.387Z,4.93
2022-11-28T17:47:58.492Z,4.95
2022-11-28T17:53:02.752Z,4.92
2022-11-28T17:58:05.827Z,4.91
2022-11-28T18:03:09.344Z,4.94
2022-11-28T18:08:12.520Z,4.96
2022-11-28T18:13:17.652Z,5.07
2022-11-28T18:18:20.881Z,5.02
2022-11-28T18:23:24.030Z,4.90
2022-11-28T18:28:27.190Z,4.97
2022-11-28T18:33:30.395Z,5.05
2022-11-28T18:38:33.585Z,4.99
2022-11-28T18:43:36.733Z,5.03
2022-11-28T18:48:39.907Z,5.06
2022-11-28T18:53:43.102Z,5.02
2022-11-28T18:58:46.339Z,5.05
2022-11-28T19:03:49.473Z,5.05
2022-11-28T19:08:52.580Z,4.96
2022-11-28T19:13:55.739Z,4.87
2022-11-28T19:18:58.828Z,4.79
2022-11-28T19:24:02.036Z,4.71
2022-11-28T19:29:05.159Z,4.68
2022-11-28T19:34:08.359Z,4.71
2022-11-28T19:39:11.506Z,4.73
2022-11-28T19:44:14.584Z,4.74
2022-11-28T19:49:17.738Z,4.69
2022-11-28T19:54:21.056Z,4.54
2022-11-28T19:59:24.764Z,4.40
2022-11-28T20:04:28.316Z,4.23
2022-11-28T20:09:32.536Z,4.22
2022-11-28T20:14:35.615Z,4.22
2022-11-28T20:19:39.192Z,4.07
2022-11-28T20:24:43.493Z,3.96
2022-11-28T20:29:47.629Z,4.01
2022-11-28T20:34:50.763Z,4.04
2022-11-28T20:39:53.849Z,4.06
2022-11-28T20:44:56.942Z,4.10
2022-11-28T20:50:00.219Z,4.18
2022-11-28T20:55:03.370Z,4.11
2022-11-28T21:00:07.083Z,4.05
2022-11-28T21:05:10.596Z,4.21
2022-11-28T21:10:13.779Z,4.18
2022-11-28T21:15:16.908Z,4.20
2022-11-28T21:20:20.429Z,4.21
2022-11-28T21:25:24.346Z,4.17
2022-11-28T21:30:27.439Z,4.19
2022-11-28T21:35:30.546Z,4.26
2022-11-28T21:40:33.204Z,4.31
2022-11-28T21:45:35.858Z,4.34
2022-11-28T21:50:38.781Z,4.40
2022-11-28T21:55:41.520Z,4.46
2022-11-28T22:00:55.542Z,4.54
2022-11-28T22:05:58.731Z,4.60
2022-11-28T22:11:04.258Z,4.58
2022-11-28T22:16:07.442Z,4.66
2022-11-28T22:21:49.484Z,4.63
2022-11-28T22:26:33.437Z,4.77
2022-11-28T22:31:36.193Z,4.65
2022-11-28T22:36:38.968Z,4.69
2022-11-28T22:41:41.551Z,4.68
2022-11-28T22:46:44.205Z,4.78
2022-11-28T22:51:46.850Z,4.78
2022-11-28T22:56:49.495Z,4.87
2022-11-28T23:01:52.309Z,4.82
2022-11-28T23:06:55.125Z,4.84
2022-11-28T23:11:58.630Z,4.83
2022-11-28T23:17:01.378Z,4.82
2022-11-28T23:22:04.619Z,4.78
2022-11-28T23:27:07.372Z,4.81
2022-11-28T23:32:10.107Z,4.81
2022-11-28T23:37:12.821Z,4.82
2022-11-28T23:42:15.463Z,4.83
2022-11-28T23:47:18.368Z,4.82
2022-11-28T23:52:21.001Z,4.85
2022-11-28T23:57:23.757Z,4.80
